Impacts METAR Board
IDs:

KFLL - Ft Lauderdale-Hollyw, FL, US

Updated at: 0700 UTC 26 Apr 2018
Potential Impact None Slight Moderate High
Time 25/19Z 25/20Z 25/21Z 25/22Z 25/23Z 26/00Z 26/01Z 26/02Z 26/03Z 26/04Z 26/05Z 26/06Z 26/07Z
Temp79 80 78 78 79 78 78 77 75 72 71 70 69
Dewpt64 66 65 66 68 70 64 70 63 64 64 63 62
Altim29.91 29.89 29.88 29.88 29.87 29.87 29.88 29.91 29.93 29.94 29.94 29.93 29.92
VIS10 10 10 10 10 10 10 10 10 10 10 10 10
CIG-- -- -- -- -- -- -- -- -- -- -- -- --
CoverSCTSCTSCTFEWFEWFEWFEWCLRFEWCLRCLRCLRCLR
FltCatVFRVFRVFRVFRVFRVFRVFRVFRVFRVFRVFRVFRVFR
WX--------------------------
WDir110110140150140150230290290280290290280
WSpd10 11 13 10 12 8 9 5 8 7 8 5 8
WGst-- -- -- -- -- -- -- -- 16 -- -- -- --
Raw hourly METARs
KFLL 251853Z 11010KT 10SM SCT055 26/18 A2991 RMK AO2 SLP128 T02610178
KFLL 251953Z 11011KT 10SM SCT055 27/19 A2989 RMK AO2 SLP120 T02670189
KFLL 252053Z 14013KT 10SM SCT055 26/18 A2988 RMK AO2 SLP118 T02560183 56020
KFLL 252153Z 15010KT 10SM FEW055 26/19 A2988 RMK AO2 SLP117 T02560189
KFLL 252253Z 14012KT 10SM FEW055 FEW250 26/20 A2987 RMK AO2 SLP115 T02610200
KFLL 252353Z 15008KT 10SM FEW250 26/21 A2987 RMK AO2 SLP114 T02560211 10289 20250 58003
KFLL 260053Z 23009KT 10SM FEW250 26/18 A2988 RMK AO2 SLP119 T02560178
KFLL 260153Z 29005KT 10SM CLR 25/21 A2991 RMK AO2 SLP129 T02500211
KFLL 260253Z 29008G16KT 10SM FEW025 24/17 A2993 RMK AO2 SLP136 T02390172 53022
KFLL 260353Z 28007KT 10SM CLR 22/18 A2994 RMK AO2 SLP139 T02220178
KFLL 260453Z 29008KT 10SM CLR 22/18 A2994 RMK AO2 SLP139 T02170178 402890206
KFLL 260553Z 29005KT 10SM CLR 21/17 A2993 RMK AO2 SLP136 T02110172 10256 20211 50000
KFLL 260653Z 28008KT 10SM CLR 21/17 A2992 RMK AO2 SLP132 T02060167



Page loaded:  07:54 UTC  |   12:54 AM Pacific  |   01:54 AM Mountain  |   02:54 AM Central  |   03:54 AM Eastern

 

ADVISORIES

FORECASTS

FORECASTS

OBSERVATIONS

USER TOOLS

ABOUT US